Terminal Aerodrome Forecast
Issued by NWS

Home | Current Version | Previous Version | Text Only | Print | Product List | Glossary On
Versions: 1 2 3 4 5 6 7 8 9 10 11 12 13 14 15 16
687
FTUS43 KILX 241203 AAA
TAFBMI
TAF AMD
KBMI 241203Z 2412/2512 20010KT P6SM SCT200
     FM241400 20014G23KT P6SM SCT250
     FM241600 20019G29KT P6SM SCT250
     FM250100 22014KT P6SM SCT100 BKN150
     FM250600 30011KT P6SM SCT150=

USA.gov is the U.S. government's official web portal to all federal, state and local government web resources and services.